< < Back
Terminal Aerodrome Forecast


Current Version              Previous Versions:   1  2  3  4  5  6  7  8  9  

Terminal Aerodrome Forecast

129
FTUS42 KFFC 191300 AAA
TAFATL
TAF AMD
KATL 191343Z 1914/2018 02014G24KT 3SM -RADZ SCT005 BKN009 OVC015
     FM191600 04014G24KT 6SM -RADZ SCT009 OVC015
     FM192200 05012G20KT P6SM BKN020
     FM200200 06012KT P6SM BKN020
     FM201500 07012G20KT P6SM BKN040=

Latest METAR

431
SAUS70 KWBC 191500 RRD
MTRATL
METAR KATL 191452Z 04013KT 2SM BR BKN009 OVC015 14/12 A3008 RMK AO2 SFC
VIS 4 RAE41 SLP187 P0002 60004 T01390122 53001 $


USA.gov is the U.S. government's official web portal to all federal, state and local government web resources and services.